createdAt,value
2018-05-29T00:02:19.832Z,74.10
2018-05-29T00:08:24.308Z,73.66
2018-05-29T00:14:28.672Z,73.67
2018-05-29T00:20:33.215Z,74.31
2018-05-29T00:26:38.339Z,74.24
2018-05-29T00:32:42.690Z,73.36
2018-05-29T00:38:47.128Z,73.92
2018-05-29T00:44:51.745Z,73.75
2018-05-29T00:50:56.194Z,74.77
2018-05-29T00:57:00.514Z,75.29
2018-05-29T01:03:04.941Z,75.34
2018-05-29T01:09:09.294Z,75.27
2018-05-29T01:15:13.660Z,76.16
2018-05-29T01:21:18.029Z,76.02
2018-05-29T01:27:22.514Z,76.37
2018-05-29T01:33:26.886Z,76.60
2018-05-29T01:39:31.233Z,76.36
2018-05-29T01:45:35.580Z,76.38
2018-05-29T01:51:40.707Z,76.67
2018-05-29T01:57:45.061Z,76.36
2018-05-29T02:03:49.422Z,76.46
2018-05-29T02:09:54.921Z,76.44
2018-05-29T02:16:00.049Z,76.49
2018-05-29T02:22:04.408Z,76.61
2018-05-29T02:28:08.759Z,77.16
2018-05-29T02:34:13.868Z,77.37
2018-05-29T02:40:18.297Z,77.37
2018-05-29T02:46:23.459Z,77.84
2018-05-29T02:52:27.813Z,77.95
2018-05-29T02:58:33.348Z,77.77
2018-05-29T03:04:37.725Z,77.78
2018-05-29T03:10:42.192Z,78.67
2018-05-29T03:16:46.560Z,78.85
2018-05-29T03:22:51.046Z,78.40
2018-05-29T03:28:56.227Z,79.08
2018-05-29T03:35:00.603Z,78.17
2018-05-29T03:41:04.991Z,78.55
2018-05-29T03:47:09.393Z,77.70
2018-05-29T03:53:13.750Z,77.95
2018-05-29T03:59:18.098Z,79.18
2018-05-29T04:05:23.494Z,79.02
2018-05-29T04:11:27.876Z,79.40
2018-05-29T04:17:32.232Z,79.21
2018-05-29T04:23:37.351Z,79.25
2018-05-29T04:29:42.643Z,78.52
2018-05-29T04:35:47.006Z,78.19
2018-05-29T04:41:51.362Z,77.81
2018-05-29T04:47:55.705Z,77.92
2018-05-29T04:54:00.880Z,77.19
2018-05-29T05:00:05.236Z,76.24
2018-05-29T05:06:09.592Z,76.40
2018-05-29T05:12:13.932Z,76.26
2018-05-29T05:18:19.235Z,75.94
2018-05-29T05:24:24.361Z,75.94
2018-05-29T05:30:28.788Z,74.22
2018-05-29T05:36:33.145Z,74.98
2018-05-29T05:42:37.508Z,74.63
2018-05-29T05:48:41.867Z,74.04
2018-05-29T05:54:46.225Z,72.21
2018-05-29T06:00:51.541Z,71.06
2018-05-29T06:06:55.893Z,69.60
2018-05-29T06:13:01.050Z,68.47
2018-05-29T06:19:05.446Z,68.46
2018-05-29T06:25:10.568Z,66.64
2018-05-29T06:31:14.945Z,66.69
2018-05-29T06:37:19.352Z,65.12
2018-05-29T06:43:24.870Z,65.26
2018-05-29T06:49:29.242Z,64.91
2018-05-29T06:55:33.606Z,63.92
2018-05-29T07:01:37.952Z,64.46
2018-05-29T07:07:43.036Z,65.35
2018-05-29T07:13:47.449Z,63.44
2018-05-29T07:19:52.049Z,63.18
2018-05-29T07:25:56.440Z,62.36
2018-05-29T07:32:01.560Z,60.48
2018-05-29T07:38:05.922Z,60.04
2018-05-29T07:44:10.288Z,57.16
2018-05-29T07:50:15.421Z,55.20
2018-05-29T07:56:19.824Z,53.84
2018-05-29T08:02:24.201Z,54.31
2018-05-29T08:08:28.917Z,53.70
2018-05-29T08:14:34.046Z,52.55
2018-05-29T08:20:38.418Z,51.77
2018-05-29T08:26:42.802Z,50.00
2018-05-29T08:32:47.161Z,51.24
2018-05-29T08:38:51.752Z,49.56
2018-05-29T08:44:56.137Z,48.58
2018-05-29T08:51:00.499Z,47.35
2018-05-29T08:57:04.855Z,46.15
2018-05-29T09:03:09.169Z,43.44
2018-05-29T09:09:14.320Z,46.06
2018-05-29T09:15:18.677Z,41.49
2018-05-29T09:21:23.985Z,44.34
2018-05-29T09:27:29.126Z,43.67
2018-05-29T09:33:33.476Z,42.06
2018-05-29T09:39:37.941Z,40.43
2018-05-29T09:45:42.315Z,42.60
2018-05-29T09:51:46.652Z,41.37
2018-05-29T09:57:51.273Z,39.17
2018-05-29T10:03:55.941Z,41.15
2018-05-29T10:10:01.257Z,41.00
2018-05-29T10:16:05.626Z,41.20
2018-05-29T10:22:09.984Z,37.52
2018-05-29T10:28:14.336Z,40.28
2018-05-29T10:34:19.677Z,35.63
2018-05-29T10:40:24.070Z,34.06
2018-05-29T10:46:28.394Z,37.91
2018-05-29T10:52:32.948Z,39.29
2018-05-29T10:58:37.279Z,35.17
2018-05-29T11:04:41.598Z,36.06
2018-05-29T11:10:45.981Z,36.98
2018-05-29T11:16:50.345Z,34.14
2018-05-29T11:22:54.981Z,32.57
2018-05-29T11:28:59.343Z,32.06
2018-05-29T11:35:03.705Z,31.74
2018-05-29T11:41:08.833Z,30.84
2018-05-29T11:47:13.195Z,31.03
2018-05-29T11:53:17.546Z,30.53
2018-05-29T11:59:23.151Z,29.87
2018-05-29T12:05:27.686Z,27.89
2018-05-29T12:11:33.545Z,29.05
2018-05-29T12:17:38.682Z,28.80
2018-05-29T12:23:43.044Z,28.56
2018-05-29T12:29:47.350Z,27.82
2018-05-29T12:35:53.225Z,27.88
2018-05-29T12:41:58.525Z,27.70
2018-05-29T12:48:02.910Z,28.20
2018-05-29T12:54:07.257Z,26.76
2018-05-29T13:00:11.614Z,26.93
2018-05-29T13:06:16.718Z,26.10
2018-05-29T13:12:21.097Z,29.23
2018-05-29T13:18:25.516Z,25.94
2018-05-29T13:24:29.886Z,25.87
2018-05-29T13:30:35.752Z,26.62
2018-05-29T13:36:40.114Z,24.83
2018-05-29T13:42:44.581Z,25.00
2018-05-29T13:48:48.999Z,24.82
2018-05-29T13:54:53.463Z,24.50
2018-05-29T14:00:57.873Z,25.11
2018-05-29T14:07:02.221Z,25.68
2018-05-29T14:13:06.575Z,23.74
2018-05-29T14:19:11.711Z,23.67
2018-05-29T14:25:16.083Z,23.58
2018-05-29T14:31:20.710Z,24.59
2018-05-29T14:37:25.322Z,25.78
2018-05-29T14:43:29.664Z,28.89
2018-05-29T14:49:34.785Z,28.12
2018-05-29T14:55:39.136Z,29.20
2018-05-29T15:01:44.249Z,30.32
2018-05-29T15:07:48.836Z,30.46
2018-05-29T15:13:53.386Z,30.95
2018-05-29T15:19:58.491Z,29.14
2018-05-29T15:26:02.893Z,34.01
2018-05-29T15:32:07.977Z,32.97
2018-05-29T15:38:12.365Z,35.41
2018-05-29T15:44:16.688Z,40.46
2018-05-29T15:50:21.526Z,38.75
2018-05-29T15:56:26.165Z,39.67
2018-05-29T16:02:30.548Z,41.79
2018-05-29T16:08:34.994Z,41.46
2018-05-29T16:14:39.410Z,43.87
2018-05-29T16:20:43.752Z,45.04
2018-05-29T16:26:48.897Z,47.81
2018-05-29T16:32:53.791Z,48.75
2018-05-29T16:38:58.164Z,49.31
2018-05-29T16:45:02.598Z,51.42
2018-05-29T16:51:06.924Z,52.25
2018-05-29T16:57:12.076Z,54.78
2018-05-29T17:03:16.463Z,52.77
2018-05-29T17:09:20.867Z,55.10
2018-05-29T17:15:25.362Z,53.51
2018-05-29T17:21:30.421Z,54.10
2018-05-29T17:27:34.793Z,55.17
2018-05-29T17:33:39.189Z,56.92
2018-05-29T17:39:43.541Z,57.34
2018-05-29T17:45:47.888Z,59.71
2018-05-29T17:51:53.341Z,57.96
2018-05-29T17:57:58.532Z,59.77
2018-05-29T18:04:02.883Z,60.75
2018-05-29T18:10:07.238Z,60.97
2018-05-29T18:16:11.591Z,61.91
2018-05-29T18:22:16.750Z,62.29
2018-05-29T18:28:21.160Z,63.76
2018-05-29T18:34:26.285Z,63.88
2018-05-29T18:40:30.638Z,64.77
2018-05-29T18:46:35.791Z,64.08
2018-05-29T18:52:40.161Z,64.15
2018-05-29T18:58:44.559Z,63.87
2018-05-29T19:04:48.937Z,64.26
2018-05-29T19:10:54.273Z,63.95
2018-05-29T19:16:58.664Z,65.16
2018-05-29T19:23:03.096Z,63.69
2018-05-29T19:29:07.365Z,65.06
2018-05-29T19:35:11.759Z,66.98
2018-05-29T19:41:16.127Z,67.52
2018-05-29T19:47:20.452Z,70.55
2018-05-29T19:53:25.610Z,65.75
2018-05-29T19:59:30.035Z,58.22
2018-05-29T20:05:34.372Z,57.92
2018-05-29T20:11:38.739Z,59.30
2018-05-29T20:17:43.080Z,60.41
2018-05-29T20:23:47.466Z,62.42
2018-05-29T20:29:52.582Z,63.93
2018-05-29T20:35:56.944Z,64.62
2018-05-29T20:42:01.282Z,66.29
2018-05-29T20:48:05.745Z,67.25
2018-05-29T20:54:10.090Z,67.47
2018-05-29T21:00:14.427Z,67.16
2018-05-29T21:06:20.269Z,70.04
2018-05-29T21:12:24.633Z,72.48
2018-05-29T21:18:28.980Z,75.08
2018-05-29T21:24:34.112Z,78.35
2018-05-29T21:30:38.511Z,78.58
2018-05-29T21:36:42.892Z,78.29
2018-05-29T21:42:47.250Z,80.30
2018-05-29T21:48:52.064Z,80.87
2018-05-29T21:54:56.462Z,81.05
2018-05-29T22:01:01.572Z,80.53
2018-05-29T22:07:05.940Z,81.09
2018-05-29T22:13:11.040Z,82.01
2018-05-29T22:19:15.402Z,82.36
2018-05-29T22:25:20.791Z,82.63
2018-05-29T22:31:25.178Z,83.32
2018-05-29T22:37:29.590Z,81.89
2018-05-29T22:43:33.976Z,82.74
2018-05-29T22:49:38.342Z,83.74
2018-05-29T22:55:42.687Z,84.57
2018-05-29T23:01:47.038Z,84.76
2018-05-29T23:07:51.547Z,84.59
2018-05-29T23:13:56.104Z,84.04
2018-05-29T23:20:01.212Z,84.01
2018-05-29T23:26:05.588Z,84.90
2018-05-29T23:32:09.928Z,84.75
2018-05-29T23:38:14.271Z,84.85
2018-05-29T23:44:18.644Z,84.69
2018-05-29T23:50:23.670Z,84.41
2018-05-29T23:56:28.056Z,84.27
